Terminal Aerodrome Forecast
Issued by NWS Pueblo, CO

Home | Current Version | Previous Version | Text Only | Print | Product List | Glossary On
Versions: 1 2 3 4 5 6 7 8 9 10 11 12 13 14 15 16 17 18 19 20 21 22 23 24 25 26 27 28 29 30 31 32 33 34 35 36 37 38 39 40 41 42 43 44
688
FTUS45 KPUB 261936 AAA
TAFCOS
TAF AMD
KCOS 261936Z 2620/2718 18020G30KT P6SM VCTS SCT060CB BKN150
      TEMPO 2620/2623 VRB20G40KT -TSRA BKN060CB
     FM270200 20011KT P6SM SCT090 BKN140
     FM270600 35010KT P6SM FEW200
     FM271100 35015KT P6SM BKN020=

USA.gov is the U.S. government's official web portal to all federal, state and local government web resources and services.